Time;durP1;ratioP1;P1;durP2;ratioP2;P2;SDS_P1;SDS_P2;PMS_P1;PMS_P2;Temp;Humidity;BMP_temperature;BMP_pressure;BME280_temperature;BME280_humidity;BME280_pressure;Samples;Min_cycle;Max_cycle;Signal;HPM_P1;HPM_P2
2021/12/08 00:00:01;;;;;;;7.45;1.90;;;;;;;;;;4267990;27;20043;-81
2021/12/08 00:02:02;;;;;;;5.55;1.77;;;;;;;;;;4267358;27;20039;-82
2021/12/08 00:04:03;;;;;;;4.47;1.90;;;;;;;;;;4267523;27;20047;-81
2021/12/08 00:06:04;;;;;;;7.43;2.03;;;;;;;;;;4267671;27;20039;-81
2021/12/08 00:08:06;;;;;;;3.83;2.13;;;;;;;;;;4248808;27;20402;-81
2021/12/08 00:10:50;;;;;;;5.70;1.73;;;;;;;;;;4267266;27;20086;-82
2021/12/08 00:15:01;;;;;;;6.07;1.38;;;;;;;;;;4267616;27;20121;-81
2021/12/08 00:17:04;;;;;;;5.25;2.08;;;;;;;;;;4237851;27;20047;-81
2021/12/08 00:19:07;;;;;;;6.32;1.90;;;;;;;;;;4231854;28;20077;-82
2021/12/08 00:21:10;;;;;;;9.90;1.92;;;;;;;;;;4249539;27;20043;-82
2021/12/08 00:23:11;;;;;;;3.85;1.70;;;;;;;;;;4232117;28;20060;-81
2021/12/08 00:25:12;;;;;;;6.85;2.28;;;;;;;;;;4231666;28;20487;-82
2021/12/08 00:27:13;;;;;;;5.57;1.80;;;;;;;;;;4250203;27;20399;-82
2021/12/08 00:29:15;;;;;;;4.30;2.05;;;;;;;;;;4231587;28;20056;-81
2021/12/08 00:31:17;;;;;;;7.40;1.80;;;;;;;;;;4249935;27;20457;-81
2021/12/08 00:33:20;;;;;;;5.55;2.15;;;;;;;;;;4231263;28;20047;-81
2021/12/08 00:35:22;;;;;;;5.93;1.73;;;;;;;;;;4249644;27;20032;-82
2021/12/08 00:37:23;;;;;;;3.70;1.45;;;;;;;;;;4231886;28;20055;-81
2021/12/08 00:39:27;;;;;;;6.70;2.25;;;;;;;;;;4250230;27;20487;-81
2021/12/08 00:41:29;;;;;;;5.90;2.25;;;;;;;;;;4264336;27;20095;-81
2021/12/08 00:43:30;;;;;;;5.40;1.88;;;;;;;;;;4245789;27;20050;-81
2021/12/08 00:45:31;;;;;;;6.13;2.35;;;;;;;;;;4248079;27;20462;-81
2021/12/08 00:47:33;;;;;;;4.43;1.55;;;;;;;;;;4251990;27;20166;-81
2021/12/08 00:49:34;;;;;;;4.68;1.92;;;;;;;;;;4231311;28;20499;-81
2021/12/08 00:51:36;;;;;;;5.05;2.20;;;;;;;;;;4231661;28;20035;-81
2021/12/08 00:53:38;;;;;;;5.28;1.90;;;;;;;;;;4249486;27;20399;-81
2021/12/08 00:55:39;;;;;;;10.35;2.50;;;;;;;;;;4249250;27;20043;-81
2021/12/08 00:57:40;;;;;;;4.90;1.70;;;;;;;;;;4249889;27;20494;-81
2021/12/08 00:59:43;;;;;;;9.63;1.83;;;;;;;;;;4231154;28;20044;-81
2021/12/08 01:01:45;;;;;;;5.65;2.53;;;;;;;;;;4231894;28;20040;-82
2021/12/08 01:03:48;;;;;;;8.35;2.20;;;;;;;;;;4230951;28;20046;-82
2021/12/08 01:05:51;;;;;;;5.10;2.00;;;;;;;;;;4248699;27;20514;-81
2021/12/08 01:07:54;;;;;;;9.80;2.35;;;;;;;;;;4249915;27;20042;-82
2021/12/08 01:09:55;;;;;;;4.55;1.90;;;;;;;;;;4231376;28;20058;-81
2021/12/08 01:12:03;;;;;;;8.95;2.45;;;;;;;;;;4231087;28;20043;-81
2021/12/08 01:14:04;;;;;;;7.43;3.08;;;;;;;;;;4248723;27;20047;-81
2021/12/08 01:16:06;;;;;;;4.80;2.30;;;;;;;;;;4230799;28;20066;-81
2021/12/08 01:18:08;;;;;;;7.38;2.17;;;;;;;;;;4231196;28;20407;-82
2021/12/08 01:20:11;;;;;;;3.53;1.73;;;;;;;;;;4230696;28;20043;-82
2021/12/08 01:22:13;;;;;;;4.50;1.83;;;;;;;;;;4245027;27;20062;-82
2021/12/08 01:24:14;;;;;;;7.22;2.15;;;;;;;;;;4236653;27;20047;-82
2021/12/08 01:26:16;;;;;;;7.32;1.67;;;;;;;;;;4249510;27;20050;-81
2021/12/08 01:28:20;;;;;;;4.47;1.95;;;;;;;;;;4248150;27;20506;-81
2021/12/08 01:30:21;;;;;;;5.68;2.60;;;;;;;;;;4230233;28;20056;-81
2021/12/08 01:32:23;;;;;;;3.10;1.75;;;;;;;;;;4230238;28;20059;-82
2021/12/08 01:34:24;;;;;;;3.38;1.60;;;;;;;;;;4229907;28;20036;-82
2021/12/08 01:36:25;;;;;;;5.28;1.60;;;;;;;;;;4248818;27;20518;-81
2021/12/08 01:38:27;;;;;;;4.10;1.77;;;;;;;;;;4247792;27;20035;-81
2021/12/08 01:40:28;;;;;;;3.95;1.63;;;;;;;;;;4229986;28;20047;-81
2021/12/08 01:42:35;;;;;;;8.70;2.10;;;;;;;;;;4230708;28;20055;-82
2021/12/08 01:46:57;;;;;;;10.68;1.98;;;;;;;;;;4230992;28;20047;-81
2021/12/08 01:48:58;;;;;;;6.75;1.80;;;;;;;;;;4230862;28;20035;-81
2021/12/08 01:51:02;;;;;;;6.25;1.65;;;;;;;;;;4230082;28;20036;-81
2021/12/08 01:53:04;;;;;;;5.00;1.70;;;;;;;;;;4213866;28;20051;-81
2021/12/08 01:55:06;;;;;;;4.07;1.88;;;;;;;;;;4248822;27;20039;-81
2021/12/08 01:57:08;;;;;;;3.40;1.80;;;;;;;;;;4248654;27;20043;-81
2021/12/08 01:59:10;;;;;;;5.70;1.52;;;;;;;;;;4260540;27;20050;-81
2021/12/08 02:01:15;;;;;;;6.88;2.05;;;;;;;;;;4265351;27;20042;-81
2021/12/08 02:03:18;;;;;;;3.47;1.85;;;;;;;;;;4247360;27;20047;-81
2021/12/08 02:05:21;;;;;;;10.60;2.38;;;;;;;;;;4246489;27;20503;-81
2021/12/08 02:07:24;;;;;;;4.65;1.70;;;;;;;;;;4247186;27;20054;-81
2021/12/08 02:09:25;;;;;;;5.93;1.95;;;;;;;;;;4265277;27;20039;-81
2021/12/08 02:11:26;;;;;;;9.25;3.15;;;;;;;;;;4264974;27;20440;-82
2021/12/08 02:13:31;;;;;;;5.50;2.30;;;;;;;;;;4265215;27;20035;-82
2021/12/08 02:15:35;;;;;;;3.85;1.88;;;;;;;;;;4260840;27;20448;-82
2021/12/08 02:17:36;;;;;;;6.95;1.83;;;;;;;;;;4245708;27;20058;-82
2021/12/08 02:19:38;;;;;;;7.32;1.35;;;;;;;;;;4250393;27;20122;-81
2021/12/08 02:21:41;;;;;;;4.75;1.60;;;;;;;;;;4259514;27;20059;-82
2021/12/08 02:23:42;;;;;;;4.93;1.67;;;;;;;;;;4232912;28;20438;-82
2021/12/08 02:25:45;;;;;;;3.10;1.35;;;;;;;;;;4234143;28;20117;-81
2021/12/08 02:27:46;;;;;;;8.88;1.58;;;;;;;;;;4233138;28;20044;-81
2021/12/08 02:29:55;;;;;;;5.88;1.50;;;;;;;;;;4233567;28;20479;-81
2021/12/08 02:32:05;;;;;;;;;;;;;;;;;;4233961;28;20471;-81
2021/12/08 02:48:07;;;;;;;5.55;1.65;;;;;;;;;;4249950;27;20043;-81
2021/12/08 02:50:09;;;;;;;6.28;1.90;;;;;;;;;;4268223;27;20054;-81
2021/12/08 02:52:12;;;;;;;3.50;1.50;;;;;;;;;;4265109;27;20043;-81
2021/12/08 02:54:13;;;;;;;5.05;2.10;;;;;;;;;;4233131;28;20044;-81
2021/12/08 02:56:16;;;;;;;6.57;1.90;;;;;;;;;;4232060;28;20044;-81
2021/12/08 02:58:18;;;;;;;3.08;1.55;;;;;;;;;;4233217;28;20423;-82
2021/12/08 03:00:24;;;;;;;6.43;2.15;;;;;;;;;;4232124;28;20047;-81
2021/12/08 03:02:26;;;;;;;6.53;1.92;;;;;;;;;;4251044;27;20053;-81
2021/12/08 03:04:29;;;;;;;6.05;1.85;;;;;;;;;;4221043;28;20059;-81
2021/12/08 03:06:30;;;;;;;10.70;2.47;;;;;;;;;;4268288;27;20210;-81
2021/12/08 03:08:31;;;;;;;6.75;2.00;;;;;;;;;;4268345;27;20397;-81
2021/12/08 03:10:34;;;;;;;4.28;1.67;;;;;;;;;;4232372;28;20511;-82
2021/12/08 03:12:36;;;;;;;4.80;2.45;;;;;;;;;;4232795;28;20054;-81
2021/12/08 03:14:37;;;;;;;5.28;1.88;;;;;;;;;;4249483;27;20056;-82
2021/12/08 03:16:40;;;;;;;4.75;3.17;;;;;;;;;;4232983;28;20122;-81
2021/12/08 03:18:41;;;;;;;5.40;1.90;;;;;;;;;;4250254;27;20200;-82
2021/12/08 03:20:45;;;;;;;4.25;1.77;;;;;;;;;;4268597;27;20046;-81
2021/12/08 03:22:49;;;;;;;6.47;2.30;;;;;;;;;;4234594;28;20043;-81
2021/12/08 03:24:52;;;;;;;5.10;2.15;;;;;;;;;;4260260;27;20043;-82
2021/12/08 03:29:15;;;;;;;8.52;2.00;;;;;;;;;;4248425;28;20073;-81
2021/12/08 03:31:19;;;;;;;2.78;1.80;;;;;;;;;;4248304;28;20056;-81
2021/12/08 03:33:21;;;;;;;6.80;2.60;;;;;;;;;;4260861;27;20039;-81
2021/12/08 03:35:24;;;;;;;6.30;2.28;;;;;;;;;;4250969;27;20139;-81
2021/12/08 03:37:25;;;;;;;6.10;2.65;;;;;;;;;;4250945;27;20071;-81
2021/12/08 03:39:27;;;;;;;9.25;2.72;;;;;;;;;;4232438;28;20645;-81
2021/12/08 03:41:32;;;;;;;5.03;2.35;;;;;;;;;;4215606;28;20134;-81
2021/12/08 03:43:34;;;;;;;3.30;2.13;;;;;;;;;;4232269;28;20123;-82
2021/12/08 03:45:38;;;;;;;5.07;2.47;;;;;;;;;;4232370;28;20094;-82
2021/12/08 03:47:42;;;;;;;9.10;2.60;;;;;;;;;;4269494;27;20472;-81
2021/12/08 03:49:45;;;;;;;12.80;3.38;;;;;;;;;;4268070;27;20053;-81
2021/12/08 03:51:47;;;;;;;12.90;3.20;;;;;;;;;;4249553;27;20051;-82
2021/12/08 03:53:48;;;;;;;10.20;2.65;;;;;;;;;;4267696;27;20054;-81
2021/12/08 03:55:51;;;;;;;7.93;2.60;;;;;;;;;;4267330;27;20489;-82
2021/12/08 03:57:53;;;;;;;5.72;2.80;;;;;;;;;;4267147;27;20103;-82
2021/12/08 03:59:54;;;;;;;7.72;2.80;;;;;;;;;;4248960;27;20043;-82
2021/12/08 04:01:55;;;;;;;7.68;2.67;;;;;;;;;;4247400;27;20142;-82
2021/12/08 04:04:02;;;;;;;4.70;3.08;;;;;;;;;;4248001;27;20050;-82
2021/12/08 04:06:15;;;;;;;5.63;2.83;;;;;;;;;;4249287;27;20065;-82
2021/12/08 04:08:19;;;;;;;6.97;2.92;;;;;;;;;;4231829;28;20043;-82
2021/12/08 04:10:21;;;;;;;5.35;3.08;;;;;;;;;;4231697;28;20059;-82
2021/12/08 04:12:23;;;;;;;8.00;3.10;;;;;;;;;;4249861;27;20054;-82
2021/12/08 04:14:25;;;;;;;7.47;3.50;;;;;;;;;;4231575;28;20499;-82
2021/12/08 04:16:32;;;;;;;5.50;2.75;;;;;;;;;;4250127;27;20075;-82
2021/12/08 04:18:34;;;;;;;6.07;3.13;;;;;;;;;;4249737;27;20082;-82
2021/12/08 04:20:42;;;;;;;11.65;3.55;;;;;;;;;;4249296;27;20045;-82
2021/12/08 04:22:45;;;;;;;4.43;2.70;;;;;;;;;;4248150;27;20055;-82
2021/12/08 04:24:49;;;;;;;6.50;3.10;;;;;;;;;;4230971;28;20562;-82
2021/12/08 04:26:55;;;;;;;6.40;3.00;;;;;;;;;;4248288;27;20502;-82
2021/12/08 04:28:57;;;;;;;5.25;2.72;;;;;;;;;;4256733;27;20084;-82
2021/12/08 04:30:58;;;;;;;6.90;3.20;;;;;;;;;;4248906;27;20137;-82
2021/12/08 04:32:59;;;;;;;6.78;3.72;;;;;;;;;;4249381;27;20530;-82
2021/12/08 04:35:02;;;;;;;7.43;3.15;;;;;;;;;;4213352;28;20082;-82
2021/12/08 04:37:07;;;;;;;5.47;3.38;;;;;;;;;;4230958;28;20084;-82
2021/12/08 04:39:15;;;;;;;6.97;3.70;;;;;;;;;;4249343;27;20047;-82
2021/12/08 04:41:23;;;;;;;6.63;3.97;;;;;;;;;;4248368;27;20134;-83
2021/12/08 04:45:42;;;;;;;7.28;4.40;;;;;;;;;;4249423;27;20196;-83
2021/12/08 04:52:34;;;;;;;6.75;3.45;;;;;;;;;;4248913;27;20570;-81
2021/12/08 05:02:17;;;;;;;6.35;4.05;;;;;;;;;;4230290;28;20077;-82
2021/12/08 05:09:05;;;;;;;10.48;4.22;;;;;;;;;;4212604;28;20048;-81
2021/12/08 05:11:06;;;;;;;6.00;3.97;;;;;;;;;;4216861;28;20086;-82
2021/12/08 05:13:09;;;;;;;11.00;3.63;;;;;;;;;;4213290;28;20080;-82
2021/12/08 05:15:10;;;;;;;11.77;4.22;;;;;;;;;;4230400;28;20062;-82
2021/12/08 05:17:15;;;;;;;13.88;4.20;;;;;;;;;;4260472;27;20073;-82
2021/12/08 05:19:20;;;;;;;8.55;4.20;;;;;;;;;;4246421;27;20054;-82
2021/12/08 05:21:22;;;;;;;5.97;4.07;;;;;;;;;;4240423;27;20415;-81
2021/12/08 05:23:28;;;;;;;11.43;4.13;;;;;;;;;;4248026;27;20130;-81
2021/12/08 05:25:31;;;;;;;8.73;4.00;;;;;;;;;;4229625;28;20596;-81
2021/12/08 05:27:40;;;;;;;5.57;3.65;;;;;;;;;;4229637;28;20043;-82
2021/12/08 05:29:49;;;;;;;9.95;3.42;;;;;;;;;;4228594;28;20050;-82
2021/12/08 05:31:51;;;;;;;8.63;4.35;;;;;;;;;;4229586;28;20054;-82
2021/12/08 05:33:55;;;;;;;11.63;4.05;;;;;;;;;;4212854;28;20044;-82
2021/12/08 05:35:57;;;;;;;6.18;3.65;;;;;;;;;;4229207;28;20039;-81
2021/12/08 05:38:01;;;;;;;7.47;4.22;;;;;;;;;;4229437;28;20071;-81
2021/12/08 05:40:04;;;;;;;7.30;3.65;;;;;;;;;;4229323;27;20135;-82
2021/12/08 05:42:07;;;;;;;7.55;3.97;;;;;;;;;;4229336;28;20047;-82
2021/12/08 05:44:08;;;;;;;9.23;3.90;;;;;;;;;;4228972;28;20047;-82
2021/12/08 05:46:11;;;;;;;8.05;4.57;;;;;;;;;;4230413;28;20044;-82
2021/12/08 05:48:12;;;;;;;9.43;4.70;;;;;;;;;;4230506;28;20088;-82
2021/12/08 05:50:16;;;;;;;12.90;4.60;;;;;;;;;;4229284;28;20091;-82
2021/12/08 05:52:18;;;;;;;8.27;3.75;;;;;;;;;;4230553;28;20615;-82
2021/12/08 05:54:23;;;;;;;7.03;3.67;;;;;;;;;;4229230;28;20130;-82
2021/12/08 05:56:24;;;;;;;7.28;3.92;;;;;;;;;;4230753;28;20036;-82
2021/12/08 05:58:26;;;;;;;8.48;3.95;;;;;;;;;;4245062;27;20482;-82
2021/12/08 06:00:30;;;;;;;12.27;4.40;;;;;;;;;;4232293;28;20047;-81
2021/12/08 06:02:33;;;;;;;5.88;3.60;;;;;;;;;;4230239;28;20164;-81
2021/12/08 06:04:35;;;;;;;8.13;4.03;;;;;;;;;;4229274;28;20047;-81
2021/12/08 06:06:37;;;;;;;9.00;3.92;;;;;;;;;;4230721;28;20391;-81
2021/12/08 06:08:39;;;;;;;4.82;3.20;;;;;;;;;;4229359;28;20534;-81
2021/12/08 06:10:42;;;;;;;9.45;3.90;;;;;;;;;;4212405;28;20083;-81
2021/12/08 06:12:43;;;;;;;7.20;4.00;;;;;;;;;;4228879;28;20079;-82
2021/12/08 06:14:45;;;;;;;6.05;3.63;;;;;;;;;;4212500;28;20407;-81
2021/12/08 06:16:47;;;;;;;7.15;3.40;;;;;;;;;;4236798;28;20051;-81
2021/12/08 06:18:51;;;;;;;8.27;4.03;;;;;;;;;;4230695;28;20452;-81
2021/12/08 06:20:55;;;;;;;7.05;4.00;;;;;;;;;;4231241;28;20079;-81
2021/12/08 06:22:57;;;;;;;8.52;4.15;;;;;;;;;;4245405;28;20035;-82
2021/12/08 06:24:59;;;;;;;6.05;3.63;;;;;;;;;;4229248;28;20085;-82
2021/12/08 06:27:00;;;;;;;7.60;3.50;;;;;;;;;;4240046;28;20119;-82
2021/12/08 06:29:03;;;;;;;9.52;4.28;;;;;;;;;;4241852;28;20043;-82
2021/12/08 06:31:06;;;;;;;5.35;3.03;;;;;;;;;;4229165;28;20090;-81
2021/12/08 06:33:08;;;;;;;8.00;3.38;;;;;;;;;;4233610;28;20433;-81
2021/12/08 06:35:12;;;;;;;7.75;3.20;;;;;;;;;;4235862;28;20407;-81
2021/12/08 06:37:22;;;;;;;5.15;3.10;;;;;;;;;;4229492;28;20042;-82
2021/12/08 06:39:27;;;;;;;7.57;3.70;;;;;;;;;;4229250;28;20130;-81
2021/12/08 06:41:32;;;;;;;8.75;3.58;;;;;;;;;;4228833;28;20052;-82
2021/12/08 06:43:36;;;;;;;7.47;3.50;;;;;;;;;;4229951;28;20488;-83
2021/12/08 06:45:39;;;;;;;6.72;3.50;;;;;;;;;;4236053;28;20058;-83
2021/12/08 06:47:41;;;;;;;9.75;3.15;;;;;;;;;;4245914;28;20567;-82
2021/12/08 06:49:42;;;;;;;8.10;3.38;;;;;;;;;;4245398;28;20074;-80
2021/12/08 06:51:46;;;;;;;7.43;3.08;;;;;;;;;;4246945;28;20051;-81
2021/12/08 06:53:49;;;;;;;11.50;3.80;;;;;;;;;;4228545;28;20130;-82
2021/12/08 06:56:02;;;;;;;8.45;3.08;;;;;;;;;;4229083;28;20442;-82
2021/12/08 06:58:06;;;;;;;7.85;3.08;;;;;;;;;;4228435;28;20043;-82
2021/12/08 07:00:22;;;;;;;4.82;3.05;;;;;;;;;;4230359;28;20089;-82
2021/12/08 07:03:29;;;;;;;4.78;2.47;;;;;;;;;;4228926;28;20055;-81
2021/12/08 07:05:11;;;;;;;10.75;3.38;;;;;;;;;;4226039;28;20108;-82
2021/12/08 07:07:15;;;;;;;7.93;3.25;;;;;;;;;;4231673;28;20096;-82
2021/12/08 07:09:21;;;;;;;8.65;3.05;;;;;;;;;;4232468;28;20061;-82
2021/12/08 07:11:24;;;;;;;5.45;3.17;;;;;;;;;;4245059;27;20046;-82
2021/12/08 07:13:28;;;;;;;7.65;2.78;;;;;;;;;;4231640;28;20044;-82
2021/12/08 07:15:50;;;;;;;6.18;2.83;;;;;;;;;;4249111;27;20051;-82
2021/12/08 07:17:54;;;;;;;7.22;2.95;;;;;;;;;;4248375;27;20047;-82
2021/12/08 07:20:15;;;;;;;9.15;3.15;;;;;;;;;;4248481;27;20079;-82
2021/12/08 07:22:19;;;;;;;7.20;2.55;;;;;;;;;;4238087;27;20043;-81
2021/12/08 07:24:22;;;;;;;4.40;2.63;;;;;;;;;;4232201;28;20043;-82
2021/12/08 07:26:28;;;;;;;9.00;2.58;;;;;;;;;;4232403;28;20154;-82
2021/12/08 07:28:29;;;;;;;8.00;2.60;;;;;;;;;;4231654;28;20048;-82
2021/12/08 07:30:34;;;;;;;5.70;3.08;;;;;;;;;;4231419;28;20517;-81
2021/12/08 07:32:37;;;;;;;8.15;2.92;;;;;;;;;;4231381;28;20100;-82
2021/12/08 07:34:39;;;;;;;7.28;2.53;;;;;;;;;;4220666;28;20597;-81
2021/12/08 07:36:43;;;;;;;7.25;2.40;;;;;;;;;;4248338;27;20093;-82
2021/12/08 07:38:52;;;;;;;5.28;2.40;;;;;;;;;;4248982;27;20109;-82
2021/12/08 07:41:14;;;;;;;6.13;2.50;;;;;;;;;;4231748;28;20073;-82
2021/12/08 07:43:16;;;;;;;7.25;2.35;;;;;;;;;;4248624;27;20396;-82
2021/12/08 07:45:19;;;;;;;4.65;2.03;;;;;;;;;;4248920;27;20228;-82
2021/12/08 07:47:22;;;;;;;4.22;1.83;;;;;;;;;;4236474;27;20100;-82
2021/12/08 07:49:24;;;;;;;3.90;2.00;;;;;;;;;;4232034;28;20181;-82
2021/12/08 07:51:30;;;;;;;5.13;2.10;;;;;;;;;;4231857;28;20050;-82
2021/12/08 07:53:32;;;;;;;9.15;1.95;;;;;;;;;;4231303;28;20066;-82
2021/12/08 07:55:36;;;;;;;2.58;1.67;;;;;;;;;;4231846;28;20048;-82
2021/12/08 07:57:37;;;;;;;8.52;1.90;;;;;;;;;;4231302;28;20055;-82
2021/12/08 07:59:41;;;;;;;4.32;2.20;;;;;;;;;;4230934;28;20051;-82
2021/12/08 08:01:46;;;;;;;7.47;2.53;;;;;;;;;;4231242;28;20051;-82
2021/12/08 08:03:47;;;;;;;3.65;1.50;;;;;;;;;;4232327;28;20514;-82
2021/12/08 08:05:50;;;;;;;4.82;1.80;;;;;;;;;;4232695;28;20042;-82
2021/12/08 08:07:51;;;;;;;3.20;2.15;;;;;;;;;;4230970;28;20043;-82
2021/12/08 08:10:00;;;;;;;5.95;1.83;;;;;;;;;;4231525;27;20449;-82
2021/12/08 08:12:03;;;;;;;5.55;1.38;;;;;;;;;;4247825;27;20035;-82
2021/12/08 08:14:04;;;;;;;7.28;2.10;;;;;;;;;;4247870;27;20051;-82
2021/12/08 08:16:07;;;;;;;6.82;1.52;;;;;;;;;;4246648;27;20047;-82
2021/12/08 08:18:10;;;;;;;2.85;1.40;;;;;;;;;;4248182;27;20047;-82
2021/12/08 08:20:14;;;;;;;4.18;1.38;;;;;;;;;;4247575;27;20051;-82
2021/12/08 08:22:18;;;;;;;4.78;2.03;;;;;;;;;;4222945;28;20043;-82
2021/12/08 08:24:20;;;;;;;1.98;1.20;;;;;;;;;;4247965;27;20053;-82
2021/12/08 08:26:23;;;;;;;2.63;1.50;;;;;;;;;;4247633;27;20442;-82
2021/12/08 08:28:24;;;;;;;11.57;2.17;;;;;;;;;;4242042;27;20542;-82
2021/12/08 08:30:28;;;;;;;4.95;1.52;;;;;;;;;;4231829;28;20052;-81
2021/12/08 08:32:34;;;;;;;3.40;1.48;;;;;;;;;;4232144;28;20499;-82
2021/12/08 08:34:39;;;;;;;3.58;1.48;;;;;;;;;;4231170;28;20105;-82
2021/12/08 08:36:44;;;;;;;2.65;1.33;;;;;;;;;;4231694;28;20051;-82
2021/12/08 08:38:50;;;;;;;6.32;1.63;;;;;;;;;;4230920;28;20051;-82
2021/12/08 08:40:57;;;;;;;5.47;1.73;;;;;;;;;;4231164;28;20044;-82
2021/12/08 08:42:58;;;;;;;4.47;1.20;;;;;;;;;;4231064;28;20051;-82
2021/12/08 08:45:08;;;;;;;8.65;1.80;;;;;;;;;;4231296;28;20082;-82
2021/12/08 08:47:12;;;;;;;4.65;1.40;;;;;;;;;;4232150;28;20419;-82
2021/12/08 08:49:15;;;;;;;3.58;1.20;;;;;;;;;;4230797;28;20045;-82
2021/12/08 08:51:22;;;;;;;3.50;1.52;;;;;;;;;;4231119;28;20484;-82
2021/12/08 08:53:25;;;;;;;8.68;1.05;;;;;;;;;;4245100;27;20047;-82
2021/12/08 08:55:30;;;;;;;7.63;1.48;;;;;;;;;;4249219;27;20043;-82
2021/12/08 08:57:36;;;;;;;5.05;1.50;;;;;;;;;;4248184;27;20043;-83
2021/12/08 08:59:43;;;;;;;5.47;1.15;;;;;;;;;;4240601;27;20055;-81
2021/12/08 09:01:46;;;;;;;6.68;1.30;;;;;;;;;;4247914;27;20054;-81
2021/12/08 09:03:51;;;;;;;5.68;1.02;;;;;;;;;;4254913;27;20057;-81
2021/12/08 09:05:59;;;;;;;5.97;1.67;;;;;;;;;;4250674;27;20039;-81
2021/12/08 09:08:01;;;;;;;4.40;1.30;;;;;;;;;;4250734;27;20063;-82
2021/12/08 09:10:09;;;;;;;4.72;1.45;;;;;;;;;;4251353;27;20054;-82
2021/12/08 09:12:25;;;;;;;6.50;1.67;;;;;;;;;;4249238;27;20085;-81
2021/12/08 09:14:34;;;;;;;7.20;1.00;;;;;;;;;;4248607;27;20131;-81
2021/12/08 09:16:43;;;;;;;5.25;1.33;;;;;;;;;;4248128;27;20035;-84
2021/12/08 09:19:03;;;;;;;3.28;1.00;;;;;;;;;;4229377;28;20491;-83
2021/12/08 09:21:15;;;;;;;5.68;1.27;;;;;;;;;;4235594;27;20043;-82
2021/12/08 09:23:22;;;;;;;5.00;1.40;;;;;;;;;;4242566;27;20051;-83
2021/12/08 09:25:35;;;;;;;5.00;1.15;;;;;;;;;;4229541;28;20044;-83
2021/12/08 09:27:42;;;;;;;5.63;1.13;;;;;;;;;;4229048;28;20048;-83
2021/12/08 09:29:46;;;;;;;5.07;1.15;;;;;;;;;;4230762;28;20051;-83
2021/12/08 09:31:55;;;;;;;7.07;1.63;;;;;;;;;;4222234;28;20047;-83
2021/12/08 09:33:59;;;;;;;3.75;1.08;;;;;;;;;;4244522;27;20058;-83
2021/12/08 09:36:03;;;;;;;4.35;1.02;;;;;;;;;;4228939;28;20082;-83
2021/12/08 09:38:11;;;;;;;9.35;2.33;;;;;;;;;;4260320;27;20565;-83
2021/12/08 09:40:32;;;;;;;8.77;1.88;;;;;;;;;;4261086;27;20501;-83
2021/12/08 09:42:39;;;;;;;7.50;1.50;;;;;;;;;;4228840;28;20103;-82
2021/12/08 09:44:44;;;;;;;4.32;1.10;;;;;;;;;;4228738;28;20107;-82
2021/12/08 09:46:47;;;;;;;2.75;1.00;;;;;;;;;;4247235;27;20119;-82
2021/12/08 09:48:50;;;;;;;5.80;1.27;;;;;;;;;;4247428;27;20075;-83
2021/12/08 09:50:51;;;;;;;2.40;0.95;;;;;;;;;;4212020;28;20048;-82
2021/12/08 09:52:52;;;;;;;4.22;0.80;;;;;;;;;;4238553;27;20050;-83
2021/12/08 09:54:55;;;;;;;3.85;1.13;;;;;;;;;;4247007;27;20046;-83
2021/12/08 09:56:58;;;;;;;2.97;0.73;;;;;;;;;;4245488;27;20458;-83
2021/12/08 09:59:01;;;;;;;9.85;1.13;;;;;;;;;;4234660;27;20051;-83
2021/12/08 10:01:04;;;;;;;1.77;0.80;;;;;;;;;;4247646;27;20047;-82
2021/12/08 10:03:05;;;;;;;5.63;1.50;;;;;;;;;;4247590;27;20058;-83
2021/12/08 10:05:12;;;;;;;8.93;1.40;;;;;;;;;;4228375;28;20055;-83
2021/12/08 10:07:14;;;;;;;5.18;0.85;;;;;;;;;;4212950;28;20425;-82
2021/12/08 10:09:19;;;;;;;4.70;0.88;;;;;;;;;;4248398;27;20047;-83
2021/12/08 10:11:21;;;;;;;5.72;0.98;;;;;;;;;;4230017;28;20044;-83
2021/12/08 10:13:22;;;;;;;7.13;1.40;;;;;;;;;;4231449;28;20043;-83
2021/12/08 10:15:24;;;;;;;3.58;0.88;;;;;;;;;;4236807;28;20040;-82
2021/12/08 10:17:25;;;;;;;7.00;1.50;;;;;;;;;;4251078;27;20043;-83
2021/12/08 10:19:26;;;;;;;4.18;1.48;;;;;;;;;;4214699;28;20126;-83
2021/12/08 10:21:38;;;;;;;5.30;1.20;;;;;;;;;;4248063;28;20519;-83
2021/12/08 10:23:40;;;;;;;3.20;0.88;;;;;;;;;;4246653;28;20095;-83
2021/12/08 10:25:50;;;;;;;7.97;1.38;;;;;;;;;;4276409;27;20043;-83
2021/12/08 10:28:10;;;;;;;7.97;1.10;;;;;;;;;;4280410;27;20102;-81
2021/12/08 10:30:24;;;;;;;4.43;0.90;;;;;;;;;;4282167;27;20076;-81
2021/12/08 10:32:35;;;;;;;6.10;0.93;;;;;;;;;;4243740;28;20097;-81
2021/12/08 10:34:47;;;;;;;3.80;0.98;;;;;;;;;;4246644;28;20130;-83
2021/12/08 10:36:53;;;;;;;6.25;1.10;;;;;;;;;;4245851;28;20362;-82
2021/12/08 10:38:55;;;;;;;2.33;0.70;;;;;;;;;;4266471;27;20046;-82
2021/12/08 10:40:59;;;;;;;6.53;1.00;;;;;;;;;;4232986;28;20076;-82
2021/12/08 10:43:12;;;;;;;4.80;0.80;;;;;;;;;;4249792;27;20051;-82
2021/12/08 10:45:16;;;;;;;7.82;1.75;;;;;;;;;;4267640;27;20118;-82
2021/12/08 10:47:20;;;;;;;6.78;1.88;;;;;;;;;;4249171;27;20086;-82
2021/12/08 10:54:24;;;;;;;9.90;2.63;;;;;;;;;;4231799;28;20043;-82
2021/12/08 10:54:25;;;;;;;6.95;1.38;;;;;;;;;;4249682;27;20058;-82
2021/12/08 10:56:34;;;;;;;4.97;1.00;;;;;;;;;;4249220;27;20055;-82
2021/12/08 10:58:36;;;;;;;3.45;1.30;;;;;;;;;;4249214;27;20043;-82
2021/12/08 11:00:39;;;;;;;4.20;1.40;;;;;;;;;;4249078;27;20066;-83
2021/12/08 11:02:40;;;;;;;9.18;1.00;;;;;;;;;;4267821;27;20500;-82
2021/12/08 11:04:43;;;;;;;7.55;0.93;;;;;;;;;;4267042;27;20042;-83
2021/12/08 11:06:44;;;;;;;8.82;1.35;;;;;;;;;;4248942;27;20519;-82
2021/12/08 11:08:47;;;;;;;4.85;1.13;;;;;;;;;;4267281;27;20074;-82
2021/12/08 11:10:51;;;;;;;6.05;1.17;;;;;;;;;;4249078;27;20047;-83
2021/12/08 11:12:54;;;;;;;6.78;1.00;;;;;;;;;;4266872;27;20053;-82
2021/12/08 11:14:55;;;;;;;1.67;1.00;;;;;;;;;;4248896;27;20051;-83
2021/12/08 11:16:56;;;;;;;2.78;1.05;;;;;;;;;;4231436;28;20118;-83
2021/12/08 11:19:05;;;;;;;8.25;1.15;;;;;;;;;;4267242;27;20486;-82
2021/12/08 11:21:14;;;;;;;6.22;1.27;;;;;;;;;;4234347;27;20047;-82
2021/12/08 11:23:17;;;;;;;;;;;;;;;;;;4250325;27;20501;-82
2021/12/08 11:25:31;;;;;;;8.10;2.28;;;;;;;;;;4231176;28;19919;-82
2021/12/08 11:27:37;;;;;;;6.22;1.00;;;;;;;;;;4214718;28;20127;-82
2021/12/08 11:29:39;;;;;;;5.50;1.38;;;;;;;;;;4249622;27;20168;-82
2021/12/08 11:31:42;;;;;;;4.35;1.35;;;;;;;;;;4231506;28;20149;-81
2021/12/08 11:33:48;;;;;;;4.68;1.17;;;;;;;;;;4249278;27;20054;-83
2021/12/08 11:36:06;;;;;;;3.45;1.40;;;;;;;;;;4249520;27;20100;-83
2021/12/08 11:38:07;;;;;;;7.03;1.10;;;;;;;;;;4214619;28;20052;-83
2021/12/08 11:40:15;;;;;;;3.10;0.80;;;;;;;;;;4234308;27;20128;-83
2021/12/08 11:42:20;;;;;;;5.13;1.60;;;;;;;;;;4248250;27;20096;-83
2021/12/08 11:44:23;;;;;;;3.03;0.90;;;;;;;;;;4247892;27;20087;-83
2021/12/08 11:46:25;;;;;;;3.45;1.17;;;;;;;;;;4231252;28;20043;-83
2021/12/08 11:48:27;;;;;;;10.02;1.70;;;;;;;;;;4266876;27;20126;-83
2021/12/08 11:50:28;;;;;;;4.15;1.20;;;;;;;;;;4248448;27;20047;-83
2021/12/08 11:52:32;;;;;;;8.55;1.10;;;;;;;;;;4248596;27;20058;-83
2021/12/08 11:54:36;;;;;;;5.50;0.80;;;;;;;;;;4230769;28;20364;-83
2021/12/08 11:56:40;;;;;;;5.57;1.92;;;;;;;;;;4248273;27;20047;-83
2021/12/08 11:58:53;;;;;;;15.15;1.30;;;;;;;;;;4248574;27;20047;-83
2021/12/08 12:00:55;;;;;;;4.30;1.27;;;;;;;;;;4248100;27;20047;-82
2021/12/08 12:03:00;;;;;;;6.00;1.27;;;;;;;;;;4248443;27;20078;-82
2021/12/08 12:05:04;;;;;;;2.55;0.93;;;;;;;;;;4266473;27;20100;-82
2021/12/08 12:07:08;;;;;;;3.25;0.88;;;;;;;;;;4248627;27;20043;-81
2021/12/08 12:09:10;;;;;;;3.85;1.42;;;;;;;;;;4248130;27;20104;-82
2021/12/08 12:11:11;;;;;;;5.57;1.42;;;;;;;;;;4247837;27;20039;-82
2021/12/08 12:13:12;;;;;;;5.35;1.17;;;;;;;;;;4248139;27;20094;-82
2021/12/08 12:15:15;;;;;;;4.88;1.00;;;;;;;;;;4247840;27;20051;-82
2021/12/08 12:17:17;;;;;;;2.72;1.08;;;;;;;;;;4265641;27;20046;-82
2021/12/08 12:19:21;;;;;;;7.78;1.27;;;;;;;;;;4231174;28;20138;-82
2021/12/08 12:21:22;;;;;;;7.88;2.08;;;;;;;;;;4231420;28;20536;-82
2021/12/08 12:23:26;;;;;;;5.00;1.08;;;;;;;;;;4249002;27;20115;-82
2021/12/08 12:25:27;;;;;;;7.20;1.30;;;;;;;;;;4214102;28;20056;-82
2021/12/08 12:27:38;;;;;;;7.30;1.10;;;;;;;;;;4230612;28;20073;-82
2021/12/08 12:29:48;;;;;;;7.97;1.10;;;;;;;;;;4248863;27;20489;-82
2021/12/08 12:31:54;;;;;;;3.28;1.15;;;;;;;;;;4248898;27;20513;-83
2021/12/08 12:33:55;;;;;;;4.25;1.10;;;;;;;;;;4230510;28;20051;-83
2021/12/08 12:35:57;;;;;;;6.10;1.20;;;;;;;;;;4230398;28;20051;-83
2021/12/08 12:38:09;;;;;;;7.68;1.35;;;;;;;;;;4213781;28;20055;-82
2021/12/08 12:40:12;;;;;;;6.20;1.27;;;;;;;;;;4248714;27;20551;-82
2021/12/08 12:42:15;;;;;;;7.65;2.10;;;;;;;;;;4229962;28;20040;-82
2021/12/08 12:44:22;;;;;;;6.72;1.30;;;;;;;;;;4230627;28;20062;-83
2021/12/08 12:46:23;;;;;;;9.70;1.17;;;;;;;;;;4218498;28;20039;-83
2021/12/08 12:48:27;;;;;;;9.93;1.23;;;;;;;;;;4247250;27;20080;-82
2021/12/08 12:50:28;;;;;;;8.10;1.50;;;;;;;;;;4230225;28;20092;-82
2021/12/08 12:52:38;;;;;;;3.33;1.10;;;;;;;;;;4259658;27;20118;-83
2021/12/08 12:54:39;;;;;;;7.32;1.08;;;;;;;;;;4230401;28;20104;-83
2021/12/08 12:56:40;;;;;;;6.93;1.30;;;;;;;;;;4213178;28;20560;-83
2021/12/08 12:58:42;;;;;;;4.40;1.17;;;;;;;;;;4248335;27;20121;-82
2021/12/08 13:00:52;;;;;;;8.02;2.42;;;;;;;;;;4229959;28;20526;-82
2021/12/08 13:02:56;;;;;;;8.32;2.38;;;;;;;;;;4229777;28;20059;-82
2021/12/08 13:05:08;;;;;;;4.50;1.40;;;;;;;;;;4248538;27;20410;-82
2021/12/08 13:07:10;;;;;;;8.80;1.92;;;;;;;;;;4230430;28;20047;-83